Time;durP1;ratioP1;P1;durP2;ratioP2;P2;SDS_P1;SDS_P2;PMS_P1;PMS_P2;Temp;Humidity;BMP_temperature;BMP_pressure;BME280_temperature;BME280_humidity;BME280_pressure;Samples;Min_cycle;Max_cycle;Signal;HPM_P1;HPM_P2
2022/01/31 00:01:34;;;;;;;3.60;2.25;;;;;;;1.90;71.86;62190.31;6079899;23;20533;-75
2022/01/31 00:04:01;;;;;;;5.32;2.28;;;;;;;1.80;72.47;62188.09;6079359;23;20240;-74
2022/01/31 00:06:27;;;;;;;4.90;2.08;;;;;;;1.85;72.67;62190.72;6079116;23;20237;-74
2022/01/31 00:08:56;;;;;;;8.40;2.95;;;;;;;1.93;72.83;62203.44;6077466;23;20215;-74
2022/01/31 00:11:23;;;;;;;16.10;3.33;;;;;;;1.90;72.84;62190.31;6079029;23;20181;-75
2022/01/31 00:13:58;;;;;;;5.60;2.58;;;;;;;1.84;71.85;62192.19;6078318;23;20211;-74
2022/01/31 00:16:31;;;;;;;8.63;2.35;;;;;;;1.85;72.93;62180.16;6078056;23;20164;-75
2022/01/31 00:18:58;;;;;;;11.57;2.80;;;;;;;1.98;69.77;62201.03;6078822;23;20185;-74
2022/01/31 00:21:25;;;;;;;4.32;1.65;;;;;;;2.01;67.30;62202.13;6077803;23;20200;-74
2022/01/31 00:23:52;;;;;;;3.05;2.05;;;;;;;2.06;68.64;62209.25;6078022;23;20241;-74
2022/01/31 00:26:20;;;;;;;10.68;2.35;;;;;;;2.05;69.43;62206.22;6077243;23;20330;-75
2022/01/31 00:28:47;;;;;;;12.32;2.22;;;;;;;2.06;69.39;62212.28;6077831;23;20181;-74
2022/01/31 00:31:14;;;;;;;6.78;2.75;;;;;;;2.08;69.49;62211.81;6078022;23;20196;-75
2022/01/31 00:33:40;;;;;;;11.13;2.47;;;;;;;2.02;69.63;62202.66;6077372;23;20176;-75
2022/01/31 00:36:07;;;;;;;6.43;2.05;;;;;;;2.01;69.36;62209.13;6077655;23;20201;-75
2022/01/31 00:38:34;;;;;;;8.38;1.73;;;;;;;2.03;70.09;62211.19;6077597;23;20203;-74
2022/01/31 00:41:01;;;;;;;7.53;2.55;;;;;;;1.99;70.90;62200.06;6077206;23;20212;-74
2022/01/31 00:43:29;;;;;;;7.78;1.63;;;;;;;1.95;70.54;62197.97;6077153;23;20232;-74
2022/01/31 00:46:02;;;;;;;7.15;2.45;;;;;;;1.97;71.20;62200.00;6077683;23;20396;-74
2022/01/31 00:48:34;;;;;;;12.13;2.22;;;;;;;1.86;71.52;62191.22;6078244;23;20458;-74
2022/01/31 00:51:00;;;;;;;9.50;2.78;;;;;;;1.98;72.55;62201.56;6077209;23;20192;-74
2022/01/31 00:53:27;;;;;;;19.20;3.05;;;;;;;1.94;72.41;62199.44;6076285;23;20360;-75
2022/01/31 00:55:54;;;;;;;12.05;2.45;;;;;;;1.95;72.46;62200.97;6077784;23;20224;-73
2022/01/31 00:58:21;;;;;;;8.75;2.45;;;;;;;1.92;73.34;62202.91;6078449;23;20176;-74
2022/01/31 01:00:49;;;;;;;11.15;2.70;;;;;;;1.94;73.76;62201.94;6076389;23;20212;-74
2022/01/31 01:03:16;;;;;;;2.65;2.10;;;;;;;1.90;72.93;62195.84;6077328;23;20172;-75
2022/01/31 01:05:43;;;;;;;5.20;1.92;;;;;;;1.89;73.14;62192.31;6077964;23;20537;-74
2022/01/31 01:08:10;;;;;;;8.23;2.28;;;;;;;1.92;73.85;62195.38;6076553;23;20172;-74
2022/01/31 01:10:37;;;;;;;4.53;2.10;;;;;;;1.95;73.55;62203.47;6076416;23;20540;-73
2022/01/31 01:13:06;;;;;;;10.57;2.22;;;;;;;1.93;72.61;62196.41;6077262;23;20180;-75
2022/01/31 01:15:33;;;;;;;11.73;2.00;;;;;;;1.93;71.93;62203.44;6077752;23;20375;-75
2022/01/31 01:18:02;;;;;;;7.88;2.25;;;;;;;1.97;72.33;62200.00;6077311;23;20232;-75
2022/01/31 01:20:29;;;;;;;3.75;1.90;;;;;;;2.02;72.52;62208.16;6076474;23;20411;-74
2022/01/31 01:22:56;;;;;;;12.90;3.17;;;;;;;2.02;71.95;62210.66;6077895;23;20401;-74
2022/01/31 01:25:23;;;;;;;4.43;2.10;;;;;;;2.03;72.61;62209.19;6078055;23;20236;-75
2022/01/31 01:27:50;;;;;;;9.02;2.35;;;;;;;1.98;72.94;62203.56;6076756;23;20189;-74
2022/01/31 01:30:18;;;;;;;22.98;2.47;;;;;;;1.95;72.08;62198.47;6077211;23;20192;-74
2022/01/31 01:32:59;;;;;;;5.93;1.75;;;;;;;1.98;71.98;62201.03;6077859;23;20173;-74
2022/01/31 01:35:32;;;;;;;2.15;1.42;;;;;;;1.97;72.21;62197.50;6076639;23;20184;-74
2022/01/31 01:38:04;;;;;;;14.68;2.28;;;;;;;1.95;72.45;62206.00;6077252;23;20176;-74
2022/01/31 01:40:31;;;;;;;3.67;2.38;;;;;;;1.98;72.11;62201.56;6077685;23;20208;-74
2022/01/31 01:42:58;;;;;;;2.90;2.38;;;;;;;1.90;71.22;62197.84;6079196;23;20220;-74
2022/01/31 01:45:25;;;;;;;2.80;1.88;;;;;;;1.81;71.30;62186.09;6080307;23;20221;-75
2022/01/31 01:47:52;;;;;;;9.15;2.15;;;;;;;1.90;71.45;62195.84;6078726;23;20177;-74
2022/01/31 01:50:19;;;;;;;4.65;2.40;;;;;;;1.90;71.89;62195.84;6077856;23;20220;-73
2022/01/31 01:52:47;;;;;;;4.47;1.98;;;;;;;1.91;72.52;62199.38;6077405;23;20172;-73
2022/01/31 01:55:15;;;;;;;9.50;2.08;;;;;;;1.84;71.54;62192.19;6077779;23;20188;-74
2022/01/31 01:57:42;;;;;;;9.05;2.30;;;;;;;1.87;71.62;62189.75;6076905;23;20177;-73
2022/01/31 02:00:15;;;;;;;8.38;2.97;;;;;;;1.90;71.98;62195.31;6078072;23;20199;-74
2022/01/31 02:02:43;;;;;;;9.10;2.40;;;;;;;1.94;70.63;62201.94;6075964;23;20212;-74
2022/01/31 02:05:10;;;;;;;10.70;2.70;;;;;;;1.91;70.59;62193.84;6075105;23;20197;-74
2022/01/31 02:07:37;;;;;;;4.50;1.90;;;;;;;1.90;69.79;62187.78;6077609;23;20176;-74
2022/01/31 02:10:07;;;;;;;7.78;1.75;;;;;;;1.86;70.50;62189.25;6078008;23;20261;-74
2022/01/31 02:12:40;;;;;;;4.10;1.90;;;;;;;1.86;69.31;62186.22;6076887;23;20534;-74
2022/01/31 02:15:09;;;;;;;6.35;2.28;;;;;;;1.86;68.53;62191.75;6077497;23;20196;-74
2022/01/31 02:17:36;;;;;;;8.80;1.77;;;;;;;1.82;68.75;62187.13;6077458;23;20179;-74
2022/01/31 02:20:05;;;;;;;2.88;2.05;;;;;;;1.80;68.69;62185.56;6076938;23;20197;-74
2022/01/31 02:22:33;;;;;;;10.38;1.88;;;;;;;1.76;69.11;62178.97;6077512;23;20172;-74
2022/01/31 02:25:00;;;;;;;2.42;1.67;;;;;;;1.72;69.23;62177.38;6079502;23;20419;-73
2022/01/31 02:27:29;;;;;;;10.30;1.90;;;;;;;1.74;69.67;62176.41;6083334;23;20177;-73
2022/01/31 02:29:56;;;;;;;12.65;1.95;;;;;;;1.69;70.46;62171.78;6085120;23;20217;-73
2022/01/31 02:32:23;;;;;;;10.55;2.58;;;;;;;1.67;71.28;62171.72;6088052;23;20201;-73
2022/01/31 02:34:51;;;;;;;12.48;2.75;;;;;;;1.69;71.52;62176.28;6083275;23;20383;-74
2022/01/31 02:37:18;;;;;;;5.22;2.03;;;;;;;1.69;71.86;62169.25;6081325;23;20224;-74
2022/01/31 02:39:47;;;;;;;10.50;2.50;;;;;;;1.70;72.21;62174.81;6080679;23;20501;-74
2022/01/31 02:42:14;;;;;;;5.05;1.85;;;;;;;1.63;72.66;62167.63;6079408;23;20200;-74
2022/01/31 02:44:42;;;;;;;2.30;1.60;;;;;;;1.64;72.04;62166.13;6079326;23;20505;-75
2022/01/31 02:47:14;;;;;;;3.92;2.10;;;;;;;1.61;71.54;62163.03;6080669;23;20180;-74
2022/01/31 02:49:47;;;;;;;5.50;1.95;;;;;;;1.54;72.21;62158.38;6079958;23;20197;-73
2022/01/31 02:52:16;;;;;;;3.22;1.65;;;;;;;1.47;72.18;62151.22;6078827;23;20405;-72
2022/01/31 02:54:44;;;;;;;4.47;2.85;;;;;;;1.48;72.32;62154.72;6078707;23;20188;-74
2022/01/31 02:57:12;;;;;;;8.45;2.30;;;;;;;1.52;72.39;62154.31;6079631;23;20173;-73
2022/01/31 02:59:39;;;;;;;7.03;2.10;;;;;;;1.53;72.30;62159.88;6079370;23;20201;-74
2022/01/31 03:02:06;;;;;;;4.20;1.77;;;;;;;1.50;71.37;62152.28;6079414;23;20389;-73
2022/01/31 03:04:33;;;;;;;8.30;1.85;;;;;;;1.50;70.86;62149.75;6080005;23;20585;-73
2022/01/31 03:07:00;;;;;;;3.80;1.70;;;;;;;1.52;70.73;62153.81;6078480;23;20181;-73
2022/01/31 03:09:27;;;;;;;14.73;2.03;;;;;;;1.50;71.20;62151.78;6079089;23;20259;-75
2022/01/31 03:11:54;;;;;;;6.05;2.30;;;;;;;1.53;71.57;62157.34;6079435;23;20240;-75
2022/01/31 03:14:22;;;;;;;3.25;1.33;;;;;;;1.57;70.39;62159.44;6079911;23;20269;-75
2022/01/31 03:16:49;;;;;;;5.97;1.88;;;;;;;1.54;70.65;62155.88;6078532;23;20477;-73
2022/01/31 03:19:17;;;;;;;7.43;1.67;;;;;;;1.64;71.55;62168.66;6079464;23;20201;-73
2022/01/31 03:21:45;;;;;;;6.93;1.75;;;;;;;1.50;71.42;62154.28;6079740;23;20513;-74
2022/01/31 03:24:15;;;;;;;7.60;2.15;;;;;;;1.41;71.89;62142.53;6080010;23;20217;-74
2022/01/31 03:26:42;;;;;;;12.90;2.20;;;;;;;1.51;72.17;62158.31;6077810;23;20168;-74
2022/01/31 03:29:11;;;;;;;5.95;1.60;;;;;;;1.55;71.05;62162.44;6079435;23;20408;-73
2022/01/31 03:31:39;;;;;;;6.15;2.10;;;;;;;1.51;69.80;62150.81;6080300;23;20222;-74
2022/01/31 03:34:06;;;;;;;9.57;2.40;;;;;;;1.45;71.06;62147.13;6078198;23;20428;-73
2022/01/31 03:36:32;;;;;;;6.72;2.58;;;;;;;1.44;70.33;62146.13;6078583;23;20402;-74
2022/01/31 03:38:59;;;;;;;5.53;1.60;;;;;;;1.34;69.69;62142.88;6078476;23;20225;-74
2022/01/31 03:41:26;;;;;;;5.80;1.55;;;;;;;1.35;70.80;62139.38;6078007;23;20440;-74
2022/01/31 03:43:53;;;;;;;8.07;1.67;;;;;;;1.29;71.45;62133.25;6078197;23;20224;-74
2022/01/31 03:46:20;;;;;;;8.80;2.22;;;;;;;1.34;72.76;62140.38;6077440;23;20192;-74
2022/01/31 03:48:49;;;;;;;1.98;1.75;;;;;;;1.29;73.49;62130.22;6078768;23;20477;-73
2022/01/31 03:51:16;;;;;;;11.77;2.42;;;;;;;1.28;73.48;62134.22;6078350;23;20193;-74
2022/01/31 03:53:43;;;;;;;22.30;1.83;;;;;;;1.27;73.70;62131.19;6077215;23;20258;-73
2022/01/31 03:56:10;;;;;;;7.07;1.60;;;;;;;1.34;73.73;62137.84;6078270;23;20193;-75
2022/01/31 03:58:37;;;;;;;5.47;2.33;;;;;;;1.34;73.51;62140.88;6078755;23;20177;-74
2022/01/31 04:01:04;;;;;;;6.55;1.73;;;;;;;1.33;71.43;62134.34;6078210;23;20212;-73
2022/01/31 04:03:30;;;;;;;3.70;2.22;;;;;;;1.33;71.27;62134.81;6077554;23;20393;-73
2022/01/31 04:05:59;;;;;;;3.35;1.48;;;;;;;1.31;71.51;62137.81;6078954;23;20219;-73
2022/01/31 04:08:25;;;;;;;3.90;2.00;;;;;;;1.29;72.15;62135.22;6078281;23;20173;-74
2022/01/31 04:10:52;;;;;;;2.80;1.70;;;;;;;1.31;71.63;62132.78;6077196;23;20237;-73
2022/01/31 04:13:19;;;;;;;12.45;1.52;;;;;;;1.31;72.55;62139.78;6076758;23;20409;-74
2022/01/31 04:15:46;;;;;;;4.25;1.80;;;;;;;1.30;71.86;62131.25;6078204;23;20192;-74
2022/01/31 04:18:14;;;;;;;6.88;1.50;;;;;;;1.27;69.96;62125.66;6078382;23;20177;-74
2022/01/31 04:20:44;;;;;;;2.15;1.95;;;;;;;1.24;71.20;62127.59;6077315;23;20205;-74
2022/01/31 04:23:15;;;;;;;4.10;2.10;;;;;;;1.21;71.18;62127.03;6078385;23;20184;-75
2022/01/31 04:25:45;;;;;;;5.65;1.92;;;;;;;1.15;72.20;62121.38;6079006;23;20197;-74
2022/01/31 04:28:20;;;;;;;6.13;1.98;;;;;;;1.06;72.10;62107.66;6078374;23;20181;-74
2022/01/31 04:30:54;;;;;;;4.93;1.50;;;;;;;1.07;73.03;62111.19;6077271;23;20224;-75
2022/01/31 04:33:21;;;;;;;6.25;2.05;;;;;;;1.06;73.39;62107.66;6078327;23;20181;-74
2022/01/31 04:35:50;;;;;;;6.82;2.25;;;;;;;1.06;74.47;62102.13;6078755;23;20188;-73
2022/01/31 04:38:19;;;;;;;3.10;1.80;;;;;;;0.97;75.50;62100.91;6077214;23;20177;-74
2022/01/31 04:40:46;;;;;;;8.45;2.30;;;;;;;0.87;76.57;62090.66;6078042;23;20196;-74
2022/01/31 04:43:12;;;;;;;4.07;2.15;;;;;;;0.86;76.33;62087.13;6080571;23;20184;-74
2022/01/31 04:45:46;;;;;;;4.95;1.70;;;;;;;0.90;76.66;62085.72;6078880;23;20205;-73
2022/01/31 04:48:13;;;;;;;7.50;2.75;;;;;;;0.79;78.03;62081.94;6076375;23;20195;-73
2022/01/31 04:50:40;;;;;;;2.42;2.22;;;;;;;0.70;76.97;62070.72;6076348;23;20233;-74
2022/01/31 04:53:06;;;;;;;6.35;2.08;;;;;;;0.69;76.22;62072.19;6077696;23;20177;-72
2022/01/31 04:55:35;;;;;;;8.35;2.20;;;;;;;0.72;76.63;62077.78;6077652;23;20469;-74
2022/01/31 04:58:02;;;;;;;3.70;2.20;;;;;;;0.55;76.10;62057.34;6077545;23;20371;-74
2022/01/31 05:00:29;;;;;;;4.47;1.75;;;;;;;0.55;75.81;62054.84;6078077;23;20253;-73
2022/01/31 05:02:56;;;;;;;6.53;2.08;;;;;;;0.52;75.91;62051.78;6078113;23;20244;-74
2022/01/31 05:05:23;;;;;;;7.30;2.28;;;;;;;0.51;75.53;62048.75;6080877;23;20517;-73
2022/01/31 05:07:52;;;;;;;7.78;2.70;;;;;;;0.47;76.33;62049.66;6084571;23;20404;-73
2022/01/31 05:10:21;;;;;;;3.92;1.75;;;;;;;0.48;76.39;62050.69;6084101;23;20233;-73
2022/01/31 05:12:49;;;;;;;5.00;2.03;;;;;;;0.43;76.49;62048.03;6084054;23;20176;-74
2022/01/31 05:15:16;;;;;;;7.43;2.10;;;;;;;0.41;77.15;62040.47;6079466;23;20421;-72
2022/01/31 05:17:43;;;;;;;5.03;2.20;;;;;;;0.49;76.60;62048.69;6079409;23;20360;-73
2022/01/31 05:20:11;;;;;;;7.07;1.88;;;;;;;0.42;76.28;62044.00;6078605;23;20193;-73
2022/01/31 05:22:38;;;;;;;2.67;1.50;;;;;;;0.41;76.83;62045.50;6078526;23;20424;-73
2022/01/31 05:25:05;;;;;;;2.05;1.58;;;;;;;0.40;76.38;62039.97;6077526;23;20196;-74
2022/01/31 05:27:35;;;;;;;1.20;1.10;;;;;;;0.40;76.85;62039.47;6078005;23;20396;-73
2022/01/31 05:30:05;;;;;;;3.40;2.30;;;;;;;0.40;77.53;62044.47;6081827;23;20216;-74
2022/01/31 05:32:31;;;;;;;9.23;3.40;;;;;;;0.36;77.54;62033.38;6083975;23;20213;-73
2022/01/31 05:35:00;;;;;;;22.77;2.08;;;;;;;0.38;77.74;62037.41;6078821;23;20196;-74
2022/01/31 05:37:29;;;;;;;5.40;1.60;;;;;;;0.34;76.96;62035.81;6082615;23;20197;-75
2022/01/31 05:39:56;;;;;;;5.30;2.10;;;;;;;0.32;77.53;62031.78;6079632;23;20211;-75
2022/01/31 05:42:23;;;;;;;5.90;2.00;;;;;;;0.30;77.59;62034.72;6075331;23;20210;-75
2022/01/31 05:44:49;;;;;;;4.43;1.50;;;;;;;0.29;77.75;62031.22;6083358;23;20505;-73
2022/01/31 05:47:18;;;;;;;3.45;2.00;;;;;;;0.34;76.90;62030.81;6078724;23;20529;-75
2022/01/31 05:49:47;;;;;;;5.93;1.48;;;;;;;0.37;77.22;62036.91;6077775;23;20212;-74
2022/01/31 05:52:14;;;;;;;2.33;2.05;;;;;;;0.35;78.00;62037.34;6076434;23;20179;-75
2022/01/31 05:54:42;;;;;;;3.22;1.30;;;;;;;0.40;77.18;62044.47;6078461;23;20505;-74
2022/01/31 05:57:10;;;;;;;1.90;1.80;;;;;;;0.41;77.08;62045.50;6077399;23;20172;-74
2022/01/31 05:59:41;;;;;;;8.35;1.88;;;;;;;0.38;77.82;62040.41;6079943;23;20236;-74
2022/01/31 06:02:09;;;;;;;5.88;2.45;;;;;;;0.36;77.37;62038.38;6080892;23;20228;-74
2022/01/31 06:04:38;;;;;;;10.70;2.45;;;;;;;0.39;77.26;62038.44;6080664;23;20220;-75
2022/01/31 06:07:05;;;;;;;10.18;2.85;;;;;;;0.39;77.80;62038.94;6080197;23;20184;-75
2022/01/31 06:09:32;;;;;;;3.20;1.98;;;;;;;0.44;76.88;62043.56;6079423;23;20220;-74
2022/01/31 06:12:01;;;;;;;5.68;1.60;;;;;;;0.36;76.08;62040.88;6079341;23;20207;-75
2022/01/31 06:14:29;;;;;;;4.10;1.70;;;;;;;0.58;73.26;62057.91;6079204;23;20211;-76
2022/01/31 06:16:56;;;;;;;2.72;1.52;;;;;;;0.65;71.30;62065.59;6079568;23;20236;-74
2022/01/31 06:19:22;;;;;;;4.50;1.70;;;;;;;0.61;69.67;62064.00;6079980;23;20196;-74
2022/01/31 06:21:54;;;;;;;11.20;2.20;;;;;;;0.72;68.23;62072.28;6079239;23;20220;-74
2022/01/31 06:24:20;;;;;;;4.82;2.08;;;;;;;0.69;68.48;62064.69;6080052;23;20232;-74
2022/01/31 06:26:48;;;;;;;5.80;1.85;;;;;;;0.74;67.48;62079.34;6081829;23;20173;-74
2022/01/31 06:29:16;;;;;;;3.35;1.70;;;;;;;0.70;67.23;62075.75;6083921;23;20363;-75
2022/01/31 06:31:42;;;;;;;1.80;1.67;;;;;;;0.75;65.78;62078.38;6082884;23;20450;-75
2022/01/31 06:34:12;;;;;;;6.93;2.25;;;;;;;0.70;64.40;62070.72;6080769;23;20200;-75
2022/01/31 06:36:39;;;;;;;3.60;1.58;;;;;;;0.64;64.24;62069.56;6078964;23;20229;-76
2022/01/31 06:39:08;;;;;;;7.45;1.55;;;;;;;0.66;63.11;62066.63;6079441;23;20260;-73
2022/01/31 06:41:35;;;;;;;3.97;1.75;;;;;;;0.69;63.84;62069.19;6080044;23;20406;-74
2022/01/31 06:44:04;;;;;;;5.45;1.40;;;;;;;0.63;65.12;62061.03;6079885;23;20177;-74
2022/01/31 06:46:30;;;;;;;3.30;1.77;;;;;;;0.68;64.60;62070.66;6079102;23;20492;-73
2022/01/31 06:48:57;;;;;;;3.75;1.60;;;;;;;0.71;65.07;62071.22;6079664;23;20177;-73
2022/01/31 06:51:24;;;;;;;2.03;1.88;;;;;;;0.78;64.19;62080.91;6083817;23;20176;-75
2022/01/31 06:53:51;;;;;;;2.25;1.40;;;;;;;0.96;62.71;62099.38;6083431;23;20173;-74
2022/01/31 06:56:28;;;;;;;5.05;1.98;;;;;;;1.02;62.22;62101.03;6081693;23;20189;-73
2022/01/31 06:58:55;;;;;;;3.42;1.50;;;;;;;0.96;61.86;62097.41;6083466;23;20204;-75
2022/01/31 07:01:24;;;;;;;4.28;1.42;;;;;;;1.03;59.91;62106.56;6083759;23;20195;-74
2022/01/31 07:03:53;;;;;;;3.10;1.73;;;;;;;1.17;59.76;62123.94;6085535;23;20215;-74
2022/01/31 07:06:20;;;;;;;1.23;1.02;;;;;;;1.17;57.73;62118.44;6087631;23;20189;-75
2022/01/31 07:08:50;;;;;;;2.90;1.05;;;;;;;1.35;58.10;62141.41;6083337;23;20188;-75
2022/01/31 07:11:22;;;;;;;2.13;1.63;;;;;;;1.61;56.70;62165.56;6090577;23;20205;-73
2022/01/31 07:14:00;;;;;;;1.45;0.75;;;;;;;1.70;54.90;62172.28;6089429;23;20188;-74
2022/01/31 07:16:27;;;;;;;3.00;1.77;;;;;;;1.42;56.42;62146.06;6088979;23;20175;-76
2022/01/31 07:19:03;;;;;;;1.58;1.25;;;;;;;1.44;54.81;62150.63;6091118;23;20236;-76
2022/01/31 07:21:37;;;;;;;2.13;1.27;;;;;;;1.42;55.98;62146.06;6091508;23;20189;-77
2022/01/31 07:24:19;;;;;;;4.72;1.35;;;;;;;1.41;55.04;62142.53;6090458;23;20236;-77
2022/01/31 07:26:48;;;;;;;1.83;1.38;;;;;;;1.42;55.22;62146.56;6090929;23;20196;-77
2022/01/31 07:29:15;;;;;;;1.35;1.17;;;;;;;1.32;55.32;62138.31;6085023;23;20220;-77
2022/01/31 07:31:43;;;;;;;9.02;2.17;;;;;;;1.41;56.14;62142.53;6086975;23;20166;-77
2022/01/31 07:34:09;;;;;;;5.13;1.67;;;;;;;1.28;57.17;62131.72;6082792;23;20183;-76
2022/01/31 07:36:37;;;;;;;2.85;1.15;;;;;;;1.18;56.25;62122.47;6079812;23;20173;-76
2022/01/31 07:39:05;;;;;;;10.88;1.48;;;;;;;1.38;55.97;62142.47;6079491;23;20200;-77
2022/01/31 07:41:32;;;;;;;6.60;1.48;;;;;;;1.44;53.21;62151.13;6078727;23;20303;-73
2022/01/31 07:44:01;;;;;;;1.67;0.90;;;;;;;1.64;50.31;62169.16;6079827;23;20208;-74
2022/01/31 07:46:27;;;;;;;2.25;1.50;;;;;;;1.56;52.60;62155.94;6079498;23;20177;-73
2022/01/31 07:48:54;;;;;;;1.40;0.73;;;;;;;1.69;51.49;62176.28;6079145;23;20208;-73
2022/01/31 07:51:21;;;;;;;3.22;1.60;;;;;;;1.76;51.46;62178.47;6082010;23;20165;-73
2022/01/31 07:53:48;;;;;;;2.80;1.05;;;;;;;1.70;51.39;62169.78;6089711;23;20177;-73
2022/01/31 07:56:17;;;;;;;2.05;1.95;;;;;;;1.85;51.62;62190.72;6086568;23;20196;-74
2022/01/31 07:58:44;;;;;;;6.00;3.90;;;;;;;1.93;50.56;62198.91;6083180;23;20177;-73
2022/01/31 08:01:12;;;;;;;2.17;1.98;;;;;;;2.00;50.77;62203.09;6075976;23;20581;-73
2022/01/31 08:03:39;;;;;;;4.57;1.85;;;;;;;1.94;50.48;62199.97;6078092;23;20212;-73
2022/01/31 08:06:06;;;;;;;4.32;2.03;;;;;;;1.94;50.44;62199.97;6077005;23;20196;-74
2022/01/31 08:08:34;;;;;;;3.15;2.00;;;;;;;2.01;49.94;62206.63;6077960;23;20561;-74
2022/01/31 08:11:04;;;;;;;6.38;2.22;;;;;;;2.00;51.21;62203.09;6078213;23;20382;-74
2022/01/31 08:13:31;;;;;;;2.58;1.73;;;;;;;1.96;51.86;62198.97;6077762;23;20177;-75
2022/01/31 08:16:09;;;;;;;2.63;1.45;;;;;;;1.89;50.29;62199.84;6078023;23;20268;-74
2022/01/31 08:18:39;;;;;;;5.32;3.17;;;;;;;1.99;49.68;62202.06;6078143;23;20231;-74
2022/01/31 08:21:07;;;;;;;3.28;2.10;;;;;;;2.09;49.17;62215.34;6078261;23;20212;-73
2022/01/31 08:23:34;;;;;;;3.20;1.42;;;;;;;2.13;49.84;62216.44;6077229;23;20216;-74
2022/01/31 08:26:02;;;;;;;4.28;2.38;;;;;;;2.15;51.30;62215.97;6076634;23;20255;-74
2022/01/31 08:28:36;;;;;;;8.55;2.17;;;;;;;2.16;50.44;62219.50;6076072;23;20212;-74
2022/01/31 08:31:11;;;;;;;9.60;2.95;;;;;;;2.08;50.89;62211.81;6075764;23;20267;-74
2022/01/31 08:33:44;;;;;;;2.05;1.25;;;;;;;2.09;50.04;62215.34;6076725;23;20184;-74
2022/01/31 08:36:13;;;;;;;3.92;1.85;;;;;;;2.08;52.02;62208.78;6075057;23;20444;-73
2022/01/31 08:38:43;;;;;;;3.78;1.23;;;;;;;2.14;51.66;62217.97;6074568;23;20211;-73
2022/01/31 08:41:11;;;;;;;7.88;3.45;;;;;;;2.09;50.90;62212.31;6076307;23;20422;-76
2022/01/31 08:43:39;;;;;;;3.05;1.73;;;;;;;2.16;50.70;62220.03;6076982;23;20212;-74
2022/01/31 08:46:08;;;;;;;8.88;2.30;;;;;;;2.18;51.87;62221.56;6077227;23;20391;-74
2022/01/31 08:48:35;;;;;;;4.75;1.55;;;;;;;2.13;52.05;62214.44;6077266;23;20426;-74
2022/01/31 08:51:05;;;;;;;7.78;1.85;;;;;;;2.30;50.99;62238.91;6077124;23;20188;-74
2022/01/31 08:53:32;;;;;;;4.88;2.05;;;;;;;2.46;50.68;62252.84;6079313;23;20220;-74
2022/01/31 08:56:01;;;;;;;4.40;2.17;;;;;;;2.54;50.05;62255.53;6078393;23;20253;-73
2022/01/31 08:58:34;;;;;;;5.05;2.50;;;;;;;2.62;50.19;62273.78;6080231;23;20181;-74
2022/01/31 09:01:17;;;;;;;5.20;2.13;;;;;;;2.75;51.96;62282.63;6083119;23;20204;-75
2022/01/31 09:04:04;;;;;;;4.53;2.20;;;;;;;2.60;54.18;62267.22;6084340;23;20216;-73
2022/01/31 09:06:36;;;;;;;4.65;1.52;;;;;;;2.53;50.90;62257.53;6082244;23;20450;-74
2022/01/31 09:09:17;;;;;;;5.35;1.58;;;;;;;2.70;49.06;62276.97;6085331;23;20207;-74
2022/01/31 09:11:45;;;;;;;8.35;1.73;;;;;;;2.54;53.21;62261.06;6082376;23;20372;-73
2022/01/31 09:14:13;;;;;;;1.90;1.48;;;;;;;2.77;52.80;62286.69;6079228;23;20530;-73
2022/01/31 09:16:40;;;;;;;5.03;1.30;;;;;;;2.82;48.75;62287.31;6082633;23;20180;-73
2022/01/31 09:19:07;;;;;;;5.18;1.80;;;;;;;2.80;50.96;62287.25;6080055;23;20522;-73
2022/01/31 09:21:35;;;;;;;6.55;1.15;;;;;;;2.74;50.15;62276.06;6081904;23;20181;-74
2022/01/31 09:24:02;;;;;;;5.13;2.10;;;;;;;2.63;50.56;62269.78;6084545;23;20204;-74
2022/01/31 09:26:29;;;;;;;4.60;1.63;;;;;;;2.85;49.61;62289.88;6079619;23;20185;-74
2022/01/31 09:28:58;;;;;;;3.85;1.70;;;;;;;2.97;50.74;62302.22;6080320;23;20404;-74
2022/01/31 09:31:25;;;;;;;8.27;1.10;;;;;;;2.76;49.99;62283.16;6080787;23;20213;-73
2022/01/31 09:33:52;;;;;;;3.20;1.80;;;;;;;2.74;50.41;62281.63;6084593;23;20216;-72
2022/01/31 09:36:22;;;;;;;5.30;1.13;;;;;;;2.71;48.51;62275.50;6079881;23;20193;-73
2022/01/31 09:38:50;;;;;;;6.63;1.20;;;;;;;2.70;49.87;62277.50;6077519;23;20180;-74
2022/01/31 09:41:24;;;;;;;2.85;1.50;;;;;;;2.85;50.53;62292.91;6078804;23;20196;-73
2022/01/31 09:44:05;;;;;;;3.67;1.75;;;;;;;3.08;51.02;62316.56;6078416;23;20208;-73
2022/01/31 09:49:14;;;;;;;3.90;1.60;;;;;;;3.49;48.44;62355.66;6071995;23;20256;-72
2022/01/31 09:51:40;;;;;;;4.60;2.00;;;;;;;3.40;48.85;62351.97;6078186;23;20525;-73
2022/01/31 09:54:09;;;;;;;2.65;1.48;;;;;;;3.40;48.94;62349.44;6080835;23;20184;-74
2022/01/31 09:56:38;;;;;;;3.88;1.55;;;;;;;3.78;48.84;62387.50;6077626;23;20405;-74
2022/01/31 09:59:07;;;;;;;1.08;1.00;;;;;;;4.02;47.33;62409.66;6078674;23;20180;-73
2022/01/31 10:01:35;;;;;;;1.08;0.95;;;;;;;3.55;44.74;62361.84;6078012;23;20236;-73
2022/01/31 10:04:07;;;;;;;3.63;1.38;;;;;;;4.08;43.48;62418.88;6077232;23;20208;-73
2022/01/31 10:06:36;;;;;;;4.10;1.58;;;;;;;4.39;44.40;62448.25;6076926;23;20577;-72
2022/01/31 10:09:07;;;;;;;6.30;1.42;;;;;;;4.00;46.05;62408.13;6072777;23;20181;-73
2022/01/31 10:11:42;;;;;;;3.75;1.67;;;;;;;3.99;47.85;62409.59;6075932;23;20165;-73
2022/01/31 10:17:01;;;;;;;2.40;1.20;;;;;;;3.44;47.39;62353.03;6077400;23;20172;-73
2022/01/31 10:19:27;;;;;;;1.73;1.45;;;;;;;3.64;44.59;62371.09;6076888;23;20260;-72
2022/01/31 10:22:02;;;;;;;2.42;1.15;;;;;;;3.99;44.50;62407.09;6076120;23;20177;-73
2022/01/31 10:24:30;;;;;;;1.38;1.05;;;;;;;3.93;45.01;62405.97;6077575;23;20256;-74
2022/01/31 10:27:06;;;;;;;1.52;1.08;;;;;;;3.54;46.72;62363.84;6083521;23;20177;-73
2022/01/31 10:29:33;;;;;;;9.93;1.75;;;;;;;3.36;48.65;62344.81;6082905;23;20240;-72
2022/01/31 10:32:03;;;;;;;4.90;1.60;;;;;;;3.51;49.12;62360.75;6083586;23;20422;-72
2022/01/31 10:34:32;;;;;;;18.92;8.25;;;;;;;3.67;49.02;62378.69;6084512;23;20196;-73
2022/01/31 10:37:03;;;;;;;3.67;2.25;;;;;;;4.15;45.36;62425.56;6084962;23;20195;-72
2022/01/31 10:51:38;;;;;;;3.20;1.30;;;;;;;4.80;41.81;62492.44;6078153;23;20256;-73
2022/01/31 10:54:09;;;;;;;4.40;1.73;;;;;;;4.63;41.94;62478.00;6079095;23;20493;-73
2022/01/31 10:56:41;;;;;;;3.78;1.73;;;;;;;4.64;43.80;62473.47;6080541;23;20172;-72
2022/01/31 10:59:12;;;;;;;2.85;1.48;;;;;;;4.28;44.88;62436.91;6080690;23;20181;-73
2022/01/31 11:01:40;;;;;;;2.78;1.23;;;;;;;4.03;45.78;62413.22;6082600;23;20402;-73
2022/01/31 11:04:11;;;;;;;4.28;1.25;;;;;;;3.95;46.18;62408.00;6082046;23;20520;-72
2022/01/31 11:06:40;;;;;;;6.68;1.35;;;;;;;4.07;46.30;62419.84;6081260;23;20187;-73
2022/01/31 11:09:09;;;;;;;4.95;0.60;;;;;;;3.91;44.35;62398.88;6081024;23;20212;-73
2022/01/31 11:11:38;;;;;;;5.55;1.40;;;;;;;3.92;45.36;62396.88;6078649;23;20197;-72
2022/01/31 11:14:07;;;;;;;2.45;1.85;;;;;;;3.81;46.24;62388.59;6079011;23;20173;-73
2022/01/31 11:16:36;;;;;;;3.83;0.80;;;;;;;3.75;46.16;62384.41;6078978;23;20374;-73
2022/01/31 11:19:08;;;;;;;2.30;1.70;;;;;;;3.93;45.59;62400.41;6078473;23;20217;-73
2022/01/31 11:21:37;;;;;;;4.50;1.55;;;;;;;4.09;45.51;62422.41;6081250;23;20356;-73
2022/01/31 11:24:17;;;;;;;4.50;1.63;;;;;;;4.31;44.13;62442.53;6077688;23;20584;-73
2022/01/31 11:26:48;;;;;;;2.58;1.10;;;;;;;4.42;43.77;62455.84;6078719;23;20165;-73
2022/01/31 11:29:16;;;;;;;1.48;0.90;;;;;;;4.50;43.21;62459.06;6078386;23;20236;-73
2022/01/31 11:31:45;;;;;;;6.82;1.60;;;;;;;4.42;43.17;62450.81;6079116;23;20169;-73
2022/01/31 11:34:14;;;;;;;0.85;0.85;;;;;;;4.31;44.02;62439.50;6076733;23;20205;-73
2022/01/31 11:36:42;;;;;;;6.45;1.60;;;;;;;4.22;44.83;62435.78;6075881;23;20363;-73
2022/01/31 11:39:12;;;;;;;1.85;0.60;;;;;;;4.21;43.13;62434.75;6077502;23;20173;-73
2022/01/31 11:41:44;;;;;;;0.77;0.70;;;;;;;4.13;43.45;62421.50;6078152;23;20478;-73
2022/01/31 11:44:18;;;;;;;1.48;0.98;;;;;;;4.54;42.12;62468.19;6078542;23;20211;-74
2022/01/31 11:46:46;;;;;;;2.00;1.05;;;;;;;4.81;40.46;62493.47;6078493;23;20173;-73
2022/01/31 11:49:14;;;;;;;0.90;0.80;;;;;;;4.78;40.72;62489.88;6079774;23;20172;-73
2022/01/31 11:52:03;;;;;;;3.53;1.10;;;;;;;4.96;40.14;62506.41;6079152;23;20192;-72
2022/01/31 11:54:31;;;;;;;0.65;0.65;;;;;;;4.99;39.15;62508.97;6062159;23;20193;-73
2022/01/31 11:56:58;;;;;;;1.95;1.00;;;;;;;4.80;38.79;62489.41;6078627;23;20176;-73
2022/01/31 11:59:25;;;;;;;0.85;0.80;;;;;;;4.77;39.82;62489.34;6079035;23;20228;-72
2022/01/31 12:01:58;;;;;;;2.15;1.08;;;;;;;4.83;38.24;62498.06;6078043;23;20171;-73
2022/01/31 12:04:32;;;;;;;1.85;1.23;;;;;;;5.03;37.14;62513.09;6078035;23;20208;-73
2022/01/31 12:06:59;;;;;;;5.68;1.48;;;;;;;5.22;38.76;62538.22;6078865;23;20477;-73